sensor_id;sensor_type;location;lat;lon;timestamp;pressure;altitude;pressure_sealevel;temperature;humidity
13041;BME280;6587;42.728;23.288;2022-10-26T00:01:30;95598.41;;;15.20;100.00
13041;BME280;6587;42.728;23.288;2022-10-26T00:03:57;95590.88;;;15.15;100.00
13041;BME280;6587;42.728;23.288;2022-10-26T00:06:25;95595.06;;;15.16;100.00
13041;BME280;6587;42.728;23.288;2022-10-26T00:08:54;95585.09;;;15.04;100.00
13041;BME280;6587;42.728;23.288;2022-10-26T00:11:22;95595.94;;;15.14;100.00
13041;BME280;6587;42.728;23.288;2022-10-26T00:13:49;95596.06;;;15.03;100.00
13041;BME280;6587;42.728;23.288;2022-10-26T00:16:19;95580.94;;;15.00;100.00
13041;BME280;6587;42.728;23.288;2022-10-26T00:18:48;95597.66;;;15.10;100.00
13041;BME280;6587;42.728;23.288;2022-10-26T00:21:15;95601.09;;;15.05;100.00
13041;BME280;6587;42.728;23.288;2022-10-26T00:23:42;95597.78;;;14.98;100.00
13041;BME280;6587;42.728;23.288;2022-10-26T00:26:09;95600.22;;;15.06;100.00
13041;BME280;6587;42.728;23.288;2022-10-26T00:28:37;95599.41;;;15.05;100.00
13041;BME280;6587;42.728;23.288;2022-10-26T00:31:06;95600.22;;;15.06;100.00
13041;BME280;6587;42.728;23.288;2022-10-26T00:33:35;95597.72;;;15.04;100.00
13041;BME280;6587;42.728;23.288;2022-10-26T00:36:03;95601.91;;;15.08;100.00
13041;BME280;6587;42.728;23.288;2022-10-26T00:38:30;95595.16;;;15.09;100.00
13041;BME280;6587;42.728;23.288;2022-10-26T00:40:57;95594.31;;;15.08;100.00
13041;BME280;6587;42.728;23.288;2022-10-26T00:43:35;95596.06;;;15.03;100.00
13041;BME280;6587;42.728;23.288;2022-10-26T00:46:06;95593.53;;;15.03;100.00
13041;BME280;6587;42.728;23.288;2022-10-26T00:48:35;95583.47;;;14.99;100.00
13041;BME280;6587;42.728;23.288;2022-10-26T00:51:07;95597.78;;;14.98;100.00
13041;BME280;6587;42.728;23.288;2022-10-26T00:53:35;95596.06;;;15.03;100.00
13041;BME280;6587;42.728;23.288;2022-10-26T00:56:03;95590.16;;;15.04;100.00
13041;BME280;6587;42.728;23.288;2022-10-26T00:58:30;95583.38;;;15.08;100.00
13041;BME280;6587;42.728;23.288;2022-10-26T01:00:58;95596.72;;;15.22;100.00
13041;BME280;6587;42.728;23.288;2022-10-26T01:03:25;95587.56;;;15.09;100.00
13041;BME280;6587;42.728;23.288;2022-10-26T01:05:57;95588.44;;;15.08;100.00
13041;BME280;6587;42.728;23.288;2022-10-26T01:08:26;95590.97;;;15.08;100.00
13041;BME280;6587;42.728;23.288;2022-10-26T01:10:56;95580.81;;;15.09;100.00
13041;BME280;6587;42.728;23.288;2022-10-26T01:13:24;95594.19;;;15.21;100.00
13041;BME280;6587;42.728;23.288;2022-10-26T01:16:00;95585.75;;;15.20;100.00
13041;BME280;6587;42.728;23.288;2022-10-26T01:18:35;95597.47;;;15.27;100.00
13041;BME280;6587;42.728;23.288;2022-10-26T01:21:31;95596.00;;;15.08;100.00
13041;BME280;6587;42.728;23.288;2022-10-26T01:24:20;95591.88;;;14.99;100.00
13041;BME280;6587;42.728;23.288;2022-10-26T01:27:12;95586.75;;;15.05;100.00
13041;BME280;6587;42.728;23.288;2022-10-26T01:30:15;95589.25;;;15.11;100.00
13041;BME280;6587;42.728;23.288;2022-10-26T01:32:47;95577.69;;;14.89;100.00
13041;BME280;6587;42.728;23.288;2022-10-26T01:35:21;95585.19;;;14.97;100.00
13041;BME280;6587;42.728;23.288;2022-10-26T01:37:55;95577.53;;;15.04;100.00
13041;BME280;6587;42.728;23.288;2022-10-26T01:40:30;95558.19;;;14.99;100.00
13041;BME280;6587;42.728;23.288;2022-10-26T01:43:03;95575.75;;;15.12;100.00
13041;BME280;6587;42.728;23.288;2022-10-26T01:45:37;95572.75;;;14.74;100.00
13041;BME280;6587;42.728;23.288;2022-10-26T01:48:07;95573.94;;;14.27;100.00
13041;BME280;6587;42.728;23.288;2022-10-26T01:50:36;95580.81;;;14.11;100.00
13041;BME280;6587;42.728;23.288;2022-10-26T01:53:04;95582.59;;;13.92;100.00
13041;BME280;6587;42.728;23.288;2022-10-26T01:55:46;95586.91;;;13.73;100.00
13041;BME280;6587;42.728;23.288;2022-10-26T02:01:34;95579.25;;;13.91;100.00
13041;BME280;6587;42.728;23.288;2022-10-26T02:04:19;95577.53;;;13.98;100.00
13041;BME280;6587;42.728;23.288;2022-10-26T02:06:58;95576.97;;;13.41;100.00
13041;BME280;6587;42.728;23.288;2022-10-26T02:09:33;95576.19;;;13.27;100.00
13041;BME280;6587;42.728;23.288;2022-10-26T02:12:05;95579.59;;;13.04;100.00
13041;BME280;6587;42.728;23.288;2022-10-26T02:14:40;95581.28;;;13.00;100.00
13041;BME280;6587;42.728;23.288;2022-10-26T02:17:20;95577.94;;;12.94;100.00
13041;BME280;6587;42.728;23.288;2022-10-26T02:19:53;95567.84;;;13.01;100.00
13041;BME280;6587;42.728;23.288;2022-10-26T02:22:24;95579.56;;;13.16;100.00
13041;BME280;6587;42.728;23.288;2022-10-26T02:24:53;95583.72;;;13.17;100.00
13041;BME280;6587;42.728;23.288;2022-10-26T02:27:23;95588.78;;;13.27;100.00
13041;BME280;6587;42.728;23.288;2022-10-26T02:29:53;95585.41;;;13.23;100.00
13041;BME280;6587;42.728;23.288;2022-10-26T02:32:25;95579.56;;;13.16;100.00
13041;BME280;6587;42.728;23.288;2022-10-26T02:34:55;95582.91;;;13.24;100.00
13041;BME280;6587;42.728;23.288;2022-10-26T02:37:24;95586.25;;;13.22;100.00
13041;BME280;6587;42.728;23.288;2022-10-26T02:39:53;95588.78;;;13.25;100.00
13041;BME280;6587;42.728;23.288;2022-10-26T02:42:22;95590.47;;;13.14;100.00
13041;BME280;6587;42.728;23.288;2022-10-26T02:44:53;95591.31;;;13.10;100.00
13041;BME280;6587;42.728;23.288;2022-10-26T02:47:23;95587.09;;;13.22;100.00
13041;BME280;6587;42.728;23.288;2022-10-26T02:49:51;95589.63;;;13.22;100.00
13041;BME280;6587;42.728;23.288;2022-10-26T02:52:23;95589.66;;;13.26;100.00
13041;BME280;6587;42.728;23.288;2022-10-26T02:54:59;95579.56;;;13.15;100.00
13041;BME280;6587;42.728;23.288;2022-10-26T02:57:33;95590.44;;;13.32;100.00
13041;BME280;6587;42.728;23.288;2022-10-26T03:00:05;95598.78;;;13.53;100.00
13041;BME280;6587;42.728;23.288;2022-10-26T03:02:34;95606.34;;;13.51;100.00
13041;BME280;6587;42.728;23.288;2022-10-26T03:05:08;95612.28;;;13.30;100.00
13041;BME280;6587;42.728;23.288;2022-10-26T03:07:36;95596.34;;;13.10;100.00
13041;BME280;6587;42.728;23.288;2022-10-26T03:10:03;95603.91;;;13.13;100.00
13041;BME280;6587;42.728;23.288;2022-10-26T03:12:30;95585.47;;;12.98;100.00
13041;BME280;6587;42.728;23.288;2022-10-26T03:14:57;95619.03;;;13.07;100.00
13041;BME280;6587;42.728;23.288;2022-10-26T03:17:24;95619.84;;;13.16;100.00
13041;BME280;6587;42.728;23.288;2022-10-26T03:19:53;95617.38;;;12.93;100.00
13041;BME280;6587;42.728;23.288;2022-10-26T03:22:20;95608.16;;;12.77;100.00
13041;BME280;6587;42.728;23.288;2022-10-26T03:24:47;95606.47;;;12.85;100.00
13041;BME280;6587;42.728;23.288;2022-10-26T03:27:14;95623.25;;;13.00;100.00
13041;BME280;6587;42.728;23.288;2022-10-26T03:29:41;95621.56;;;12.94;100.00
13041;BME280;6587;42.728;23.288;2022-10-26T03:32:08;95625.78;;;12.85;100.00
13041;BME280;6587;42.728;23.288;2022-10-26T03:34:35;95623.28;;;12.54;100.00
13041;BME280;6587;42.728;23.288;2022-10-26T03:37:03;95617.41;;;12.40;100.00
13041;BME280;6587;42.728;23.288;2022-10-26T03:39:31;95619.91;;;12.41;100.00
13041;BME280;6587;42.728;23.288;2022-10-26T03:41:57;95624.13;;;12.44;100.00
13041;BME280;6587;42.728;23.288;2022-10-26T03:44:25;95619.94;;;12.38;100.00
13041;BME280;6587;42.728;23.288;2022-10-26T03:46:51;95622.44;;;12.43;100.00
13041;BME280;6587;42.728;23.288;2022-10-26T03:49:18;95625.78;;;12.34;100.00
13041;BME280;6587;42.728;23.288;2022-10-26T03:51:46;95608.19;;;12.31;100.00
13041;BME280;6587;42.728;23.288;2022-10-26T03:54:15;95629.13;;;12.45;100.00
13041;BME280;6587;42.728;23.288;2022-10-26T03:56:43;95624.97;;;12.50;100.00
13041;BME280;6587;42.728;23.288;2022-10-26T03:59:09;95629.97;;;12.49;100.00
13041;BME280;6587;42.728;23.288;2022-10-26T04:01:36;95626.63;;;12.45;100.00
13041;BME280;6587;42.728;23.288;2022-10-26T04:04:04;95616.56;;;12.51;100.00
13041;BME280;6587;42.728;23.288;2022-10-26T04:06:31;95619.91;;;12.52;100.00
13041;BME280;6587;42.728;23.288;2022-10-26T04:08:58;95619.91;;;12.60;100.00
13041;BME280;6587;42.728;23.288;2022-10-26T04:11:28;95625.78;;;12.72;100.00
13041;BME280;6587;42.728;23.288;2022-10-26T04:13:55;95630.84;;;12.72;100.00
13041;BME280;6587;42.728;23.288;2022-10-26T04:16:24;95628.31;;;12.75;100.00
13041;BME280;6587;42.728;23.288;2022-10-26T04:18:51;95632.50;;;12.84;100.00
13041;BME280;6587;42.728;23.288;2022-10-26T04:21:18;95624.06;;;12.96;100.00
13041;BME280;6587;42.728;23.288;2022-10-26T04:23:45;95630.81;;;12.94;100.00
13041;BME280;6587;42.728;23.288;2022-10-26T04:26:11;95626.59;;;13.05;100.00
13041;BME280;6587;42.728;23.288;2022-10-26T04:28:40;95624.06;;;13.07;100.00
13041;BME280;6587;42.728;23.288;2022-10-26T04:31:07;95617.38;;;12.96;100.00
13041;BME280;6587;42.728;23.288;2022-10-26T04:33:34;95630.81;;;13.01;100.00
13041;BME280;6587;42.728;23.288;2022-10-26T04:36:01;95629.97;;;12.98;100.00
13041;BME280;6587;42.728;23.288;2022-10-26T04:38:28;95639.19;;;12.99;100.00
13041;BME280;6587;42.728;23.288;2022-10-26T04:40:55;95642.56;;;12.92;100.00
13041;BME280;6587;42.728;23.288;2022-10-26T04:43:22;95649.28;;;12.94;100.00
13041;BME280;6587;42.728;23.288;2022-10-26T04:45:53;95642.56;;;13.04;100.00
13041;BME280;6587;42.728;23.288;2022-10-26T04:48:21;95652.63;;;13.06;100.00
13041;BME280;6587;42.728;23.288;2022-10-26T04:50:48;95653.47;;;12.94;100.00
13041;BME280;6587;42.728;23.288;2022-10-26T04:53:15;95654.31;;;12.97;100.00
13041;BME280;6587;42.728;23.288;2022-10-26T04:55:42;95640.88;;;12.88;100.00
13041;BME280;6587;42.728;23.288;2022-10-26T04:58:09;95652.63;;;12.87;100.00
13041;BME280;6587;42.728;23.288;2022-10-26T05:00:37;95658.50;;;12.85;100.00
13041;BME280;6587;42.728;23.288;2022-10-26T05:03:06;95655.16;;;12.87;100.00
13041;BME280;6587;42.728;23.288;2022-10-26T05:05:34;95647.59;;;12.81;100.00
13041;BME280;6587;42.728;23.288;2022-10-26T05:08:02;95651.81;;;12.64;100.00
13041;BME280;6587;42.728;23.288;2022-10-26T05:10:29;95651.81;;;12.62;100.00
13041;BME280;6587;42.728;23.288;2022-10-26T05:12:58;95651.78;;;12.56;100.00
13041;BME280;6587;42.728;23.288;2022-10-26T05:15:25;95653.50;;;12.49;100.00
13041;BME280;6587;42.728;23.288;2022-10-26T05:17:56;95661.03;;;12.49;100.00
13041;BME280;6587;42.728;23.288;2022-10-26T05:20:27;95654.31;;;12.65;100.00
13041;BME280;6587;42.728;23.288;2022-10-26T05:22:56;95665.25;;;12.57;100.00
13041;BME280;6587;42.728;23.288;2022-10-26T05:25:23;95646.78;;;12.68;100.00
13041;BME280;6587;42.728;23.288;2022-10-26T05:27:50;95655.16;;;12.70;100.00
13041;BME280;6587;42.728;23.288;2022-10-26T05:30:17;95660.19;;;12.70;100.00
13041;BME280;6587;42.728;23.288;2022-10-26T05:32:44;95671.94;;;12.88;100.00
13041;BME280;6587;42.728;23.288;2022-10-26T05:35:10;95669.44;;;12.73;100.00
13041;BME280;6587;42.728;23.288;2022-10-26T05:37:39;95671.09;;;12.88;100.00
13041;BME280;6587;42.728;23.288;2022-10-26T05:40:07;95678.66;;;12.88;100.00
13041;BME280;6587;42.728;23.288;2022-10-26T05:42:34;95681.19;;;12.89;100.00
13041;BME280;6587;42.728;23.288;2022-10-26T05:45:01;95681.19;;;12.79;100.00
13041;BME280;6587;42.728;23.288;2022-10-26T05:47:29;95685.38;;;12.98;100.00
13041;BME280;6587;42.728;23.288;2022-10-26T05:49:55;95690.41;;;13.07;100.00
13041;BME280;6587;42.728;23.288;2022-10-26T05:52:22;95686.22;;;12.91;100.00
13041;BME280;6587;42.728;23.288;2022-10-26T05:54:51;95692.09;;;12.94;100.00
13041;BME280;6587;42.728;23.288;2022-10-26T05:57:18;95686.22;;;12.97;100.00
13041;BME280;6587;42.728;23.288;2022-10-26T05:59:46;95675.28;;;12.89;100.00
13041;BME280;6587;42.728;23.288;2022-10-26T06:02:22;95701.31;;;13.05;100.00
13041;BME280;6587;42.728;23.288;2022-10-26T06:04:53;95709.72;;;13.13;100.00
13041;BME280;6587;42.728;23.288;2022-10-26T06:07:24;95708.88;;;13.32;100.00
13041;BME280;6587;42.728;23.288;2022-10-26T06:09:53;95710.53;;;13.48;100.00
13041;BME280;6587;42.728;23.288;2022-10-26T06:12:20;95717.25;;;13.53;100.00
13041;BME280;6587;42.728;23.288;2022-10-26T06:14:48;95716.38;;;13.63;100.00
13041;BME280;6587;42.728;23.288;2022-10-26T06:17:29;95721.34;;;13.87;100.00
13041;BME280;6587;42.728;23.288;2022-10-26T06:20:16;95721.31;;;13.95;100.00
13041;BME280;6587;42.728;23.288;2022-10-26T06:22:54;95718.78;;;13.98;100.00
13041;BME280;6587;42.728;23.288;2022-10-26T06:25:35;95722.13;;;14.06;100.00
13041;BME280;6587;42.728;23.288;2022-10-26T06:28:17;95725.47;;;14.10;100.00
13041;BME280;6587;42.728;23.288;2022-10-26T06:30:49;95725.47;;;14.10;100.00
13041;BME280;6587;42.728;23.288;2022-10-26T06:33:16;95716.97;;;14.23;100.00
13041;BME280;6587;42.728;23.288;2022-10-26T06:35:47;95717.81;;;14.28;100.00
13041;BME280;6587;42.728;23.288;2022-10-26T06:38:19;95726.19;;;14.32;100.00
13041;BME280;6587;42.728;23.288;2022-10-26T06:40:51;95729.47;;;14.57;100.00
13041;BME280;6587;42.728;23.288;2022-10-26T06:43:22;95732.75;;;14.65;100.00
13041;BME280;6587;42.728;23.288;2022-10-26T06:45:55;95734.31;;;14.81;100.00
13041;BME280;6587;42.728;23.288;2022-10-26T06:48:34;95737.56;;;15.03;100.00
13041;BME280;6587;42.728;23.288;2022-10-26T06:51:10;95734.09;;;15.13;100.00
13041;BME280;6587;42.728;23.288;2022-10-26T06:53:42;95746.75;;;15.10;100.00
13041;BME280;6587;42.728;23.288;2022-10-26T06:56:15;95744.31;;;15.01;100.00
13041;BME280;6587;42.728;23.288;2022-10-26T06:58:43;95744.97;;;15.23;100.00
13041;BME280;6587;42.728;23.288;2022-10-26T07:01:11;95741.38;;;15.46;100.00
13041;BME280;6587;42.728;23.288;2022-10-26T07:03:38;95745.59;;;15.47;100.00
13041;BME280;6587;42.728;23.288;2022-10-26T07:06:05;95748.97;;;15.47;100.00
13041;BME280;6587;42.728;23.288;2022-10-26T07:08:32;95744.78;;;15.45;100.00
13041;BME280;6587;42.728;23.288;2022-10-26T07:10:59;95747.94;;;15.70;100.00
13041;BME280;6587;42.728;23.288;2022-10-26T07:13:28;95737.03;;;15.66;100.00
13041;BME280;6587;42.728;23.288;2022-10-26T07:15:54;95745.47;;;15.57;100.00
13041;BME280;6587;42.728;23.288;2022-10-26T07:18:21;95745.75;;;15.28;100.00
13041;BME280;6587;42.728;23.288;2022-10-26T07:20:48;95744.03;;;15.36;100.00
13041;BME280;6587;42.728;23.288;2022-10-26T07:23:15;95739.59;;;15.58;100.00
13041;BME280;6587;42.728;23.288;2022-10-26T07:25:42;95743.84;;;15.53;100.00
13041;BME280;6587;42.728;23.288;2022-10-26T07:28:09;95734.50;;;15.66;100.00
13041;BME280;6587;42.728;23.288;2022-10-26T07:30:38;95741.69;;;16.01;100.00
13041;BME280;6587;42.728;23.288;2022-10-26T07:33:07;95738.16;;;16.16;100.00
13041;BME280;6587;42.728;23.288;2022-10-26T07:35:35;95739.69;;;16.26;100.00
13041;BME280;6587;42.728;23.288;2022-10-26T07:38:02;95728.56;;;16.40;100.00
13041;BME280;6587;42.728;23.288;2022-10-26T07:40:30;95733.69;;;16.35;100.00
13041;BME280;6587;42.728;23.288;2022-10-26T07:42:57;95735.13;;;16.53;100.00
13041;BME280;6587;42.728;23.288;2022-10-26T07:45:26;95727.50;;;16.56;100.00
13041;BME280;6587;42.728;23.288;2022-10-26T07:47:54;95723.72;;;16.86;100.00
13041;BME280;6587;42.728;23.288;2022-10-26T07:50:22;95732.44;;;16.65;100.00
13041;BME280;6587;42.728;23.288;2022-10-26T07:52:49;95720.84;;;17.07;100.00
13041;BME280;6587;42.728;23.288;2022-10-26T07:55:16;95718.97;;;17.19;100.00
13041;BME280;6587;42.728;23.288;2022-10-26T07:57:43;95721.72;;;17.05;100.00
13041;BME280;6587;42.728;23.288;2022-10-26T08:00:11;95726.91;;;16.97;100.00
13041;BME280;6587;42.728;23.288;2022-10-26T08:02:40;95719.97;;;17.08;100.00
13041;BME280;6587;42.728;23.288;2022-10-26T08:05:08;95727.88;;;16.90;100.00
13041;BME280;6587;42.728;23.288;2022-10-26T08:07:39;95724.00;;;17.20;100.00
13041;BME280;6587;42.728;23.288;2022-10-26T08:10:07;95729.25;;;17.59;100.00
13041;BME280;6587;42.728;23.288;2022-10-26T08:12:34;95732.47;;;17.69;100.00
13041;BME280;6587;42.728;23.288;2022-10-26T08:15:01;95716.81;;;17.45;100.00
13041;BME280;6587;42.728;23.288;2022-10-26T08:17:28;95730.66;;;18.20;100.00
13041;BME280;6587;42.728;23.288;2022-10-26T08:19:55;95725.78;;;18.10;100.00
13041;BME280;6587;42.728;23.288;2022-10-26T08:22:23;95719.50;;;18.66;96.24
13041;BME280;6587;42.728;23.288;2022-10-26T08:24:50;95718.16;;;18.90;93.41
13041;BME280;6587;42.728;23.288;2022-10-26T08:27:17;95721.31;;;19.00;90.51
13041;BME280;6587;42.728;23.288;2022-10-26T08:29:44;95715.19;;;19.43;87.66
13041;BME280;6587;42.728;23.288;2022-10-26T08:32:11;95714.59;;;19.32;87.81
13041;BME280;6587;42.728;23.288;2022-10-26T08:34:37;95719.41;;;19.77;83.91
13041;BME280;6587;42.728;23.288;2022-10-26T08:37:04;95722.22;;;19.99;80.88
13041;BME280;6587;42.728;23.288;2022-10-26T08:39:33;95720.78;;;19.56;81.72
13041;BME280;6587;42.728;23.288;2022-10-26T08:42:04;95715.31;;;20.02;78.99
13041;BME280;6587;42.728;23.288;2022-10-26T08:44:37;95699.19;;;20.61;74.55
13041;BME280;6587;42.728;23.288;2022-10-26T08:47:13;95711.66;;;20.40;72.54
13041;BME280;6587;42.728;23.288;2022-10-26T08:49:47;95713.75;;;21.12;69.60
13041;BME280;6587;42.728;23.288;2022-10-26T08:52:18;95719.59;;;21.15;66.34
13041;BME280;6587;42.728;23.288;2022-10-26T08:54:51;95718.66;;;21.18;66.49
13041;BME280;6587;42.728;23.288;2022-10-26T08:57:23;95726.56;;;21.10;64.82
13041;BME280;6587;42.728;23.288;2022-10-26T08:59:56;95717.16;;;21.64;63.50
13041;BME280;6587;42.728;23.288;2022-10-26T09:02:24;95719.84;;;21.34;62.13
13041;BME280;6587;42.728;23.288;2022-10-26T09:04:54;95728.94;;;21.43;62.27
13041;BME280;6587;42.728;23.288;2022-10-26T09:07:45;95718.47;;;21.76;61.00
13041;BME280;6587;42.728;23.288;2022-10-26T09:10:23;95722.13;;;21.69;58.96
13041;BME280;6587;42.728;23.288;2022-10-26T09:13:03;95718.38;;;22.02;57.07
13041;BME280;6587;42.728;23.288;2022-10-26T09:15:39;95708.78;;;22.56;54.50
13041;BME280;6587;42.728;23.288;2022-10-26T09:18:24;95701.44;;;22.69;54.57
13041;BME280;6587;42.728;23.288;2022-10-26T09:21:09;95692.00;;;23.35;53.54
13041;BME280;6587;42.728;23.288;2022-10-26T09:24:00;95694.84;;;23.49;51.96
13041;BME280;6587;42.728;23.288;2022-10-26T09:26:35;95686.69;;;23.81;51.00
13041;BME280;6587;42.728;23.288;2022-10-26T09:29:09;95692.16;;;23.73;49.43
13041;BME280;6587;42.728;23.288;2022-10-26T09:31:39;95686.28;;;24.48;49.18
13041;BME280;6587;42.728;23.288;2022-10-26T09:34:07;95688.19;;;24.43;48.20
13041;BME280;6587;42.728;23.288;2022-10-26T09:36:40;95677.75;;;24.84;47.75
13041;BME280;6587;42.728;23.288;2022-10-26T09:39:13;95679.94;;;25.28;45.53
13041;BME280;6587;42.728;23.288;2022-10-26T09:41:49;95672.81;;;26.32;45.38
13041;BME280;6587;42.728;23.288;2022-10-26T09:44:21;95672.00;;;25.32;44.22
13041;BME280;6587;42.728;23.288;2022-10-26T09:46:56;95663.25;;;24.83;45.20
13041;BME280;6587;42.728;23.288;2022-10-26T09:49:28;95670.25;;;25.33;43.70
13041;BME280;6587;42.728;23.288;2022-10-26T09:51:59;95667.75;;;25.99;43.49
13041;BME280;6587;42.728;23.288;2022-10-26T09:54:25;95663.44;;;26.95;41.05
13041;BME280;6587;42.728;23.288;2022-10-26T09:56:55;95661.94;;;27.51;40.33
13041;BME280;6587;42.728;23.288;2022-10-26T09:59:24;95660.38;;;26.25;41.44
13041;BME280;6587;42.728;23.288;2022-10-26T10:01:52;95666.66;;;25.87;41.75
13041;BME280;6587;42.728;23.288;2022-10-26T10:04:20;95655.47;;;26.83;40.50
13041;BME280;6587;42.728;23.288;2022-10-26T10:06:50;95652.59;;;26.42;40.09
13041;BME280;6587;42.728;23.288;2022-10-26T10:09:19;95643.13;;;26.11;41.05
13041;BME280;6587;42.728;23.288;2022-10-26T10:11:48;95646.34;;;26.78;39.81
13041;BME280;6587;42.728;23.288;2022-10-26T10:14:23;95641.09;;;26.95;39.20
13041;BME280;6587;42.728;23.288;2022-10-26T10:16:53;95636.41;;;26.72;39.00
13041;BME280;6587;42.728;23.288;2022-10-26T10:19:22;95647.22;;;26.62;39.83
13041;BME280;6587;42.728;23.288;2022-10-26T10:21:53;95638.56;;;26.00;40.92
13041;BME280;6587;42.728;23.288;2022-10-26T10:24:28;95638.56;;;26.32;41.20
13041;BME280;6587;42.728;23.288;2022-10-26T10:27:01;95635.31;;;27.36;39.42
13041;BME280;6587;42.728;23.288;2022-10-26T10:29:31;95626.00;;;27.78;39.50
13041;BME280;6587;42.728;23.288;2022-10-26T10:31:59;95630.09;;;27.07;39.33
13041;BME280;6587;42.728;23.288;2022-10-26T10:34:29;95629.81;;;27.42;39.05
13041;BME280;6587;42.728;23.288;2022-10-26T10:36:57;95621.22;;;26.97;38.77
13041;BME280;6587;42.728;23.288;2022-10-26T10:39:36;95622.31;;;26.93;39.59
13041;BME280;6587;42.728;23.288;2022-10-26T10:42:10;95621.59;;;26.75;39.24
13041;BME280;6587;42.728;23.288;2022-10-26T10:44:42;95613.16;;;27.03;39.25
13041;BME280;6587;42.728;23.288;2022-10-26T10:47:18;95618.59;;;26.83;39.51
13041;BME280;6587;42.728;23.288;2022-10-26T10:49:51;95610.59;;;27.91;38.73
13041;BME280;6587;42.728;23.288;2022-10-26T10:52:24;95607.13;;;29.65;36.77
13041;BME280;6587;42.728;23.288;2022-10-26T10:54:59;95607.16;;;28.19;35.95
13041;BME280;6587;42.728;23.288;2022-10-26T10:57:33;95606.91;;;27.66;37.06
13041;BME280;6587;42.728;23.288;2022-10-26T11:00:08;95608.31;;;28.42;36.10
13041;BME280;6587;42.728;23.288;2022-10-26T11:05:47;95598.44;;;29.28;35.22
13041;BME280;6587;42.728;23.288;2022-10-26T11:08:20;95592.50;;;28.19;35.30
13041;BME280;6587;42.728;23.288;2022-10-26T11:10:58;95596.69;;;29.67;34.67
13041;BME280;6587;42.728;23.288;2022-10-26T11:13:30;95596.53;;;30.07;33.79
13041;BME280;6587;42.728;23.288;2022-10-26T11:16:02;95594.06;;;29.92;33.11
13041;BME280;6587;42.728;23.288;2022-10-26T11:18:33;95594.22;;;30.02;32.84
13041;BME280;6587;42.728;23.288;2022-10-26T11:21:04;95589.09;;;30.87;31.34
13041;BME280;6587;42.728;23.288;2022-10-26T11:23:37;95592.22;;;29.31;32.90
13041;BME280;6587;42.728;23.288;2022-10-26T11:26:11;95584.13;;;30.84;31.24
13041;BME280;6587;42.728;23.288;2022-10-26T11:28:45;95583.78;;;33.21;28.99
13041;BME280;6587;42.728;23.288;2022-10-26T11:31:19;95576.72;;;33.94;27.53
13041;BME280;6587;42.728;23.288;2022-10-26T11:34:00;95579.69;;;34.20;26.04
13041;BME280;6587;42.728;23.288;2022-10-26T11:36:32;95577.22;;;33.48;28.00
13041;BME280;6587;42.728;23.288;2022-10-26T11:39:10;95573.41;;;34.23;26.46
13041;BME280;6587;42.728;23.288;2022-10-26T11:41:46;95566.38;;;33.43;25.89
13041;BME280;6587;42.728;23.288;2022-10-26T11:44:18;95566.06;;;33.15;26.97
13041;BME280;6587;42.728;23.288;2022-10-26T11:46:53;95571.34;;;32.40;27.03
13041;BME280;6587;42.728;23.288;2022-10-26T11:49:25;95527.28;;;32.49;26.88
13041;BME280;6587;42.728;23.288;2022-10-26T11:51:57;95573.22;;;31.03;28.30
13041;BME280;6587;42.728;23.288;2022-10-26T11:54:39;95564.41;;;32.29;27.83
13041;BME280;6587;42.728;23.288;2022-10-26T11:57:09;95563.53;;;34.46;26.14
13041;BME280;6587;42.728;23.288;2022-10-26T11:59:40;95553.56;;;34.32;24.28
13041;BME280;6587;42.728;23.288;2022-10-26T12:02:13;95572.16;;;30.22;28.56
13041;BME280;6587;42.728;23.288;2022-10-26T12:04:43;95565.78;;;30.74;27.54
13041;BME280;6587;42.728;23.288;2022-10-26T12:07:15;95560.47;;;30.64;27.06
13041;BME280;6587;42.728;23.288;2022-10-26T12:09:44;95565.00;;;31.09;27.44
13041;BME280;6587;42.728;23.288;2022-10-26T12:12:18;95558.25;;;33.15;26.26
13041;BME280;6587;42.728;23.288;2022-10-26T12:14:52;95562.00;;;33.22;25.55
13041;BME280;6587;42.728;23.288;2022-10-26T12:17:25;95556.97;;;32.35;26.01
13041;BME280;6587;42.728;23.288;2022-10-26T12:20:02;95557.84;;;32.02;26.53
13041;BME280;6587;42.728;23.288;2022-10-26T12:22:33;95548.44;;;32.45;25.83
13041;BME280;6587;42.728;23.288;2022-10-26T12:25:09;95556.22;;;33.40;24.93
13041;BME280;6587;42.728;23.288;2022-10-26T12:27:52;95557.53;;;32.28;26.20
13041;BME280;6587;42.728;23.288;2022-10-26T12:30:27;95553.84;;;33.06;25.65
13041;BME280;6587;42.728;23.288;2022-10-26T12:32:57;95548.25;;;32.25;26.66
13041;BME280;6587;42.728;23.288;2022-10-26T12:35:37;95553.44;;;32.69;26.41
13041;BME280;6587;42.728;23.288;2022-10-26T12:41:22;95548.84;;;34.16;25.88
13041;BME280;6587;42.728;23.288;2022-10-26T12:43:51;95549.13;;;32.03;25.93
13041;BME280;6587;42.728;23.288;2022-10-26T12:46:39;95548.78;;;29.74;27.22
13041;BME280;6587;42.728;23.288;2022-10-26T12:52:31;95550.16;;;31.22;26.70
13041;BME280;6587;42.728;23.288;2022-10-26T12:55:35;95551.63;;;31.37;26.73
13041;BME280;6587;42.728;23.288;2022-10-26T12:58:27;95549.72;;;32.07;26.86
13041;BME280;6587;42.728;23.288;2022-10-26T13:01:30;95559.69;;;32.98;25.14
13041;BME280;6587;42.728;23.288;2022-10-26T13:07:07;95552.59;;;31.01;25.41
13041;BME280;6587;42.728;23.288;2022-10-26T13:09:44;95551.72;;;31.58;24.86
13041;BME280;6587;42.728;23.288;2022-10-26T13:12:12;95556.72;;;31.04;24.84
13041;BME280;6587;42.728;23.288;2022-10-26T13:14:48;95559.78;;;32.32;24.38
13041;BME280;6587;42.728;23.288;2022-10-26T13:17:23;95556.63;;;32.29;23.74
13041;BME280;6587;42.728;23.288;2022-10-26T13:19:54;95562.00;;;29.69;25.44
13041;BME280;6587;42.728;23.288;2022-10-26T13:22:22;95559.13;;;30.11;24.87
13041;BME280;6587;42.728;23.288;2022-10-26T13:24:53;95569.03;;;29.55;25.45
13041;BME280;6587;42.728;23.288;2022-10-26T13:27:40;95562.00;;;28.53;26.45
13041;BME280;6587;42.728;23.288;2022-10-26T13:33:21;95553.94;;;30.83;24.78